Time;durP1;ratioP1;P1;durP2;ratioP2;P2;SDS_P1;SDS_P2;PMS_P1;PMS_P2;Temp;Humidity;BMP_temperature;BMP_pressure;BME280_temperature;BME280_humidity;BME280_pressure;Samples;Min_cycle;Max_cycle;Signal;HPM_P1;HPM_P2
2021/08/14 00:16:17;;;;;;;56.97;26.00;;;;;;;;;;4678801;28;20131;-69
2021/08/14 00:18:43;;;;;;;53.03;26.50;;;;;;;;;;4252142;33;20135;-69
2021/08/14 00:21:09;;;;;;;50.30;25.08;;;;;;;;;;4259684;33;20447;-69
2021/08/14 00:23:35;;;;;;;57.88;25.52;;;;;;;;;;4260152;33;20519;-68
2021/08/14 00:26:02;;;;;;;52.30;24.60;;;;;;;;;;4246956;33;20274;-69
2021/08/14 00:28:29;;;;;;;49.88;23.65;;;;;;;;;;4232988;33;20124;-69
2021/08/14 00:30:56;;;;;;;51.92;24.92;;;;;;;;;;4234995;33;20203;-68
2021/08/14 00:33:23;;;;;;;50.72;24.00;;;;;;;;;;4254208;33;20127;-68
2021/08/14 00:35:52;;;;;;;48.90;24.33;;;;;;;;;;4249147;33;20199;-69
2021/08/14 00:38:20;;;;;;;48.40;23.92;;;;;;;;;;4262098;33;20127;-69
2021/08/14 00:40:48;;;;;;;56.05;26.00;;;;;;;;;;4249121;33;20100;-69
2021/08/14 00:43:15;;;;;;;55.78;24.05;;;;;;;;;;4237322;33;20124;-68
2021/08/14 00:45:42;;;;;;;46.58;24.95;;;;;;;;;;4248719;33;20116;-69
2021/08/14 00:48:09;;;;;;;54.30;23.58;;;;;;;;;;4248857;33;20184;-68
2021/08/14 00:50:36;;;;;;;56.00;26.30;;;;;;;;;;4248980;33;20111;-68
2021/08/14 00:53:03;;;;;;;51.33;24.02;;;;;;;;;;4237253;33;20096;-67
2021/08/14 00:55:30;;;;;;;51.88;26.90;;;;;;;;;;4248752;33;20115;-67
2021/08/14 00:57:57;;;;;;;52.83;24.95;;;;;;;;;;4237380;33;20206;-67
2021/08/14 01:00:27;;;;;;;57.60;26.77;;;;;;;;;;4237314;33;20104;-67
2021/08/14 01:02:56;;;;;;;54.60;26.45;;;;;;;;;;4248594;33;20093;-67
2021/08/14 01:05:23;;;;;;;54.30;26.25;;;;;;;;;;4237202;33;20111;-67
2021/08/14 01:07:50;;;;;;;47.90;26.23;;;;;;;;;;4237052;33;20135;-67
2021/08/14 01:10:18;;;;;;;53.03;27.25;;;;;;;;;;4248981;33;20112;-67
2021/08/14 01:12:47;;;;;;;48.83;23.85;;;;;;;;;;4261884;33;20108;-67
2021/08/14 01:15:13;;;;;;;50.08;25.88;;;;;;;;;;4236571;33;20093;-67
2021/08/14 01:17:40;;;;;;;58.00;27.87;;;;;;;;;;4248509;33;20103;-67
2021/08/14 01:20:06;;;;;;;59.00;27.20;;;;;;;;;;4225243;33;20126;-67
2021/08/14 01:22:34;;;;;;;55.55;25.98;;;;;;;;;;4261821;33;20120;-67
2021/08/14 01:25:02;;;;;;;49.25;25.35;;;;;;;;;;4261627;33;20264;-65
2021/08/14 01:27:28;;;;;;;52.85;24.85;;;;;;;;;;4248650;33;20104;-66
2021/08/14 01:29:54;;;;;;;50.80;23.50;;;;;;;;;;4236999;33;20092;-67
2021/08/14 01:32:22;;;;;;;58.78;23.95;;;;;;;;;;4261671;33;20187;-68
2021/08/14 01:34:49;;;;;;;51.85;23.60;;;;;;;;;;4236869;33;20108;-68
2021/08/14 01:37:15;;;;;;;49.50;24.52;;;;;;;;;;4248774;33;20160;-68
2021/08/14 01:39:41;;;;;;;52.78;26.25;;;;;;;;;;4261376;33;20124;-68
2021/08/14 01:42:08;;;;;;;54.45;23.48;;;;;;;;;;4248594;33;20105;-68
2021/08/14 01:44:36;;;;;;;65.32;28.15;;;;;;;;;;4248750;33;20128;-68
2021/08/14 01:47:03;;;;;;;59.08;28.25;;;;;;;;;;4261619;33;20192;-68
2021/08/14 01:49:29;;;;;;;44.40;19.83;;;;;;;;;;4261475;33;20583;-68
2021/08/14 01:51:56;;;;;;;50.03;25.80;;;;;;;;;;4236597;33;20096;-68
2021/08/14 01:54:23;;;;;;;55.33;27.30;;;;;;;;;;4248673;33;20268;-68
2021/08/14 01:56:50;;;;;;;58.63;28.02;;;;;;;;;;4236692;33;20101;-68
2021/08/14 01:59:17;;;;;;;59.03;27.27;;;;;;;;;;4248671;33;20503;-68
2021/08/14 02:01:44;;;;;;;57.92;27.58;;;;;;;;;;4248312;33;20127;-68
2021/08/14 02:04:10;;;;;;;57.33;27.17;;;;;;;;;;4261388;33;20215;-68
2021/08/14 02:06:36;;;;;;;57.17;26.00;;;;;;;;;;4248410;33;20198;-68
2021/08/14 02:09:02;;;;;;;56.92;24.25;;;;;;;;;;4261166;33;20127;-68
2021/08/14 02:11:33;;;;;;;51.25;24.65;;;;;;;;;;4236574;33;20108;-68
2021/08/14 02:13:59;;;;;;;49.65;24.65;;;;;;;;;;4248643;33;20118;-68
2021/08/14 02:16:25;;;;;;;54.97;27.15;;;;;;;;;;4247769;33;20100;-68
2021/08/14 02:18:51;;;;;;;58.25;26.80;;;;;;;;;;4261285;33;20140;-68
2021/08/14 02:21:18;;;;;;;58.72;27.65;;;;;;;;;;4247987;33;20187;-68
2021/08/14 02:23:45;;;;;;;53.95;26.60;;;;;;;;;;4248153;33;20467;-68
2021/08/14 02:26:12;;;;;;;61.72;26.10;;;;;;;;;;4261012;33;20108;-68
2021/08/14 02:28:38;;;;;;;62.40;28.10;;;;;;;;;;4261353;33;20123;-68
2021/08/14 02:31:05;;;;;;;56.08;27.30;;;;;;;;;;4260910;33;20119;-68
2021/08/14 02:33:31;;;;;;;53.22;26.35;;;;;;;;;;4248229;33;20112;-68
2021/08/14 02:35:58;;;;;;;54.78;27.40;;;;;;;;;;4247894;33;20131;-68
2021/08/14 02:38:24;;;;;;;61.10;29.25;;;;;;;;;;4236161;33;20178;-68
2021/08/14 02:40:50;;;;;;;58.78;26.92;;;;;;;;;;4260779;33;20194;-68
2021/08/14 02:43:17;;;;;;;58.85;27.65;;;;;;;;;;4260491;33;20120;-68
2021/08/14 02:45:44;;;;;;;59.55;28.58;;;;;;;;;;4260933;33;20201;-68
2021/08/14 02:48:10;;;;;;;62.40;28.48;;;;;;;;;;4260974;33;20530;-68
2021/08/14 02:50:37;;;;;;;70.12;29.80;;;;;;;;;;4260849;33;20124;-68
2021/08/14 02:53:03;;;;;;;59.88;27.87;;;;;;;;;;4259884;33;20546;-68
2021/08/14 02:55:30;;;;;;;65.00;29.23;;;;;;;;;;4260726;33;20471;-68
2021/08/14 02:57:56;;;;;;;58.17;26.98;;;;;;;;;;4260895;33;20112;-68
2021/08/14 03:00:23;;;;;;;62.58;28.80;;;;;;;;;;4260876;33;20157;-68
2021/08/14 03:02:50;;;;;;;61.70;29.17;;;;;;;;;;4248021;33;20134;-68
2021/08/14 03:05:16;;;;;;;61.37;29.25;;;;;;;;;;4236177;33;20206;-68
2021/08/14 03:07:45;;;;;;;65.65;29.35;;;;;;;;;;4248034;33;20108;-68
2021/08/14 03:10:13;;;;;;;57.88;27.75;;;;;;;;;;4260679;33;20120;-68
2021/08/14 03:12:41;;;;;;;66.30;28.98;;;;;;;;;;4247818;33;20132;-68
2021/08/14 03:15:09;;;;;;;62.22;28.85;;;;;;;;;;4260659;33;20539;-68
2021/08/14 03:17:35;;;;;;;68.18;29.70;;;;;;;;;;4260430;33;20100;-68
2021/08/14 03:20:02;;;;;;;60.92;27.08;;;;;;;;;;4247576;33;20461;-68
2021/08/14 03:22:28;;;;;;;57.65;27.65;;;;;;;;;;4260284;33;20571;-68
2021/08/14 03:24:54;;;;;;;54.15;26.27;;;;;;;;;;4260499;33;21245;-68
2021/08/14 03:27:20;;;;;;;58.83;27.02;;;;;;;;;;4260317;33;20209;-68
2021/08/14 03:29:46;;;;;;;63.40;29.12;;;;;;;;;;4260656;33;20143;-68
2021/08/14 03:32:12;;;;;;;55.63;28.12;;;;;;;;;;4260285;33;20112;-68
2021/08/14 03:34:38;;;;;;;55.83;26.10;;;;;;;;;;4260260;33;20119;-67
2021/08/14 03:37:04;;;;;;;52.33;25.55;;;;;;;;;;4247125;33;20115;-69
2021/08/14 03:39:30;;;;;;;58.63;27.80;;;;;;;;;;4260530;33;20101;-67
2021/08/14 03:41:56;;;;;;;55.88;27.20;;;;;;;;;;4235908;33;20195;-67
2021/08/14 03:44:22;;;;;;;55.63;26.62;;;;;;;;;;4235596;33;20147;-67
2021/08/14 03:46:49;;;;;;;57.60;27.08;;;;;;;;;;4260339;33;20108;-67
2021/08/14 03:49:15;;;;;;;55.35;27.30;;;;;;;;;;4260386;33;20175;-68
2021/08/14 03:51:41;;;;;;;53.90;26.70;;;;;;;;;;4260192;33;20164;-68
2021/08/14 03:54:07;;;;;;;55.95;26.87;;;;;;;;;;4260508;33;20116;-67
2021/08/14 03:56:34;;;;;;;58.50;27.60;;;;;;;;;;4260181;33;20096;-67
2021/08/14 03:59:01;;;;;;;54.92;27.33;;;;;;;;;;4260150;33;20136;-67
2021/08/14 04:01:27;;;;;;;50.70;26.40;;;;;;;;;;4259971;33;20109;-66
2021/08/14 04:03:54;;;;;;;60.15;28.17;;;;;;;;;;4260137;33;20123;-66
2021/08/14 04:06:21;;;;;;;64.37;27.27;;;;;;;;;;4247310;33;20318;-66
2021/08/14 04:08:47;;;;;;;66.22;27.60;;;;;;;;;;4235382;33;20203;-66
2021/08/14 04:11:13;;;;;;;55.08;27.83;;;;;;;;;;4260139;33;20139;-66
2021/08/14 04:13:39;;;;;;;55.67;28.95;;;;;;;;;;4260233;33;20112;-66
2021/08/14 04:16:05;;;;;;;58.70;27.20;;;;;;;;;;4244206;33;20140;-67
2021/08/14 04:18:32;;;;;;;62.38;27.65;;;;;;;;;;4244634;33;20114;-67
2021/08/14 04:20:58;;;;;;;60.72;27.42;;;;;;;;;;4245728;33;20144;-68
2021/08/14 04:23:24;;;;;;;55.05;27.73;;;;;;;;;;4243982;33;20214;-68
2021/08/14 04:25:50;;;;;;;58.97;26.52;;;;;;;;;;4245889;33;20132;-68
2021/08/14 04:28:16;;;;;;;62.67;28.00;;;;;;;;;;4244591;33;20128;-68
2021/08/14 04:30:43;;;;;;;55.83;28.17;;;;;;;;;;4245810;33;20113;-68
2021/08/14 04:33:09;;;;;;;60.53;28.35;;;;;;;;;;4245615;33;20127;-68
2021/08/14 04:35:35;;;;;;;56.00;26.70;;;;;;;;;;4232718;33;20603;-68
2021/08/14 04:38:02;;;;;;;61.92;28.17;;;;;;;;;;4245693;33;20124;-68
2021/08/14 04:40:28;;;;;;;57.50;27.75;;;;;;;;;;4244012;33;20532;-68
2021/08/14 04:42:54;;;;;;;60.55;26.15;;;;;;;;;;4245531;33;20127;-68
2021/08/14 04:45:24;;;;;;;67.78;30.30;;;;;;;;;;4245748;33;20488;-69
2021/08/14 04:47:50;;;;;;;49.90;22.13;;;;;;;;;;4245511;33;20208;-69
2021/08/14 04:50:16;;;;;;;54.58;23.52;;;;;;;;;;4244261;33;20099;-67
2021/08/14 04:52:42;;;;;;;57.28;25.25;;;;;;;;;;4243683;33;20123;-69
2021/08/14 04:55:09;;;;;;;61.83;28.55;;;;;;;;;;4245588;33;20084;-68
2021/08/14 04:57:35;;;;;;;50.20;24.48;;;;;;;;;;4245643;33;20125;-69
2021/08/14 05:00:02;;;;;;;49.85;24.08;;;;;;;;;;4245589;33;20573;-69
2021/08/14 05:02:30;;;;;;;56.45;26.65;;;;;;;;;;4245369;33;20246;-68
2021/08/14 05:04:57;;;;;;;58.85;27.55;;;;;;;;;;4245208;33;20280;-68
2021/08/14 05:07:22;;;;;;;47.42;23.42;;;;;;;;;;4243778;33;20246;-69
2021/08/14 05:09:50;;;;;;;56.95;25.77;;;;;;;;;;4245112;33;20117;-69
2021/08/14 05:12:17;;;;;;;64.72;29.05;;;;;;;;;;4243718;33;20504;-69
2021/08/14 05:14:43;;;;;;;54.95;25.75;;;;;;;;;;4243838;33;20116;-69
2021/08/14 05:17:10;;;;;;;52.92;24.37;;;;;;;;;;4258473;33;20168;-69
2021/08/14 05:19:37;;;;;;;59.80;27.67;;;;;;;;;;4261417;33;20116;-69
2021/08/14 05:22:03;;;;;;;56.42;27.13;;;;;;;;;;4261795;33;20117;-69
2021/08/14 05:24:30;;;;;;;52.33;26.98;;;;;;;;;;4261648;33;20187;-70
2021/08/14 05:26:56;;;;;;;59.30;27.25;;;;;;;;;;4261180;33;20135;-72
2021/08/14 05:29:22;;;;;;;55.45;24.90;;;;;;;;;;4261317;33;20120;-69
2021/08/14 05:31:48;;;;;;;55.45;26.55;;;;;;;;;;4247978;33;20546;-68
2021/08/14 05:34:14;;;;;;;55.20;26.08;;;;;;;;;;4248354;33;20119;-68
2021/08/14 05:36:40;;;;;;;51.10;24.80;;;;;;;;;;4259253;33;20139;-67
2021/08/14 05:39:06;;;;;;;42.20;19.60;;;;;;;;;;4246639;33;20520;-71
2021/08/14 05:41:37;;;;;;;52.92;24.45;;;;;;;;;;4259682;33;20187;-69
2021/08/14 05:44:03;;;;;;;49.28;24.37;;;;;;;;;;4246819;33;20124;-68
2021/08/14 05:46:29;;;;;;;41.20;20.90;;;;;;;;;;4259164;33;20195;-68
2021/08/14 05:48:56;;;;;;;41.00;21.30;;;;;;;;;;4259346;33;20132;-69
2021/08/14 05:51:24;;;;;;;46.40;22.10;;;;;;;;;;4259849;33;20103;-69
2021/08/14 05:53:50;;;;;;;47.70;22.40;;;;;;;;;;4248184;33;20112;-69
2021/08/14 05:56:16;;;;;;;44.45;22.65;;;;;;;;;;4260988;33;20127;-68
2021/08/14 05:58:42;;;;;;;39.92;20.33;;;;;;;;;;4261242;33;20128;-68
2021/08/14 06:01:08;;;;;;;43.25;20.75;;;;;;;;;;4247752;33;20225;-68
2021/08/14 06:03:35;;;;;;;33.95;18.60;;;;;;;;;;4261398;33;20120;-68
2021/08/14 06:06:01;;;;;;;34.05;18.50;;;;;;;;;;4261175;33;20445;-68
2021/08/14 06:08:28;;;;;;;46.35;21.87;;;;;;;;;;4261274;33;20119;-68
2021/08/14 06:10:54;;;;;;;41.05;20.20;;;;;;;;;;4261036;33;20107;-69
2021/08/14 06:13:20;;;;;;;38.28;19.90;;;;;;;;;;4261159;33;20221;-68
2021/08/14 06:15:46;;;;;;;35.10;19.65;;;;;;;;;;4235964;33;20254;-69
2021/08/14 06:18:12;;;;;;;38.60;20.10;;;;;;;;;;4247837;33;20207;-68
2021/08/14 06:20:38;;;;;;;36.58;20.90;;;;;;;;;;4247677;33;20135;-67
2021/08/14 06:23:04;;;;;;;39.92;20.67;;;;;;;;;;4247858;33;20095;-68
2021/08/14 06:25:30;;;;;;;34.88;17.92;;;;;;;;;;4247742;33;20128;-67
2021/08/14 06:27:56;;;;;;;33.88;18.15;;;;;;;;;;4260957;33;20214;-70
2021/08/14 06:30:22;;;;;;;39.03;19.90;;;;;;;;;;4247787;33;20119;-70
2021/08/14 06:32:48;;;;;;;41.35;18.67;;;;;;;;;;4260963;33;20123;-70
2021/08/14 06:35:14;;;;;;;40.45;18.73;;;;;;;;;;4247682;33;20152;-70
2021/08/14 06:37:44;;;;;;;32.72;18.42;;;;;;;;;;4260821;33;20123;-70
2021/08/14 06:40:11;;;;;;;33.72;19.27;;;;;;;;;;4247684;33;20444;-70
2021/08/14 06:42:38;;;;;;;35.80;20.60;;;;;;;;;;4260701;33;20107;-70
2021/08/14 06:45:05;;;;;;;42.00;21.37;;;;;;;;;;4260648;33;20115;-71
2021/08/14 06:47:31;;;;;;;43.87;22.52;;;;;;;;;;4260939;33;20110;-70
2021/08/14 06:49:57;;;;;;;40.33;24.30;;;;;;;;;;4260662;33;20202;-70
2021/08/14 06:52:24;;;;;;;46.05;25.65;;;;;;;;;;4247523;33;20144;-70
2021/08/14 06:54:49;;;;;;;45.40;25.98;;;;;;;;;;4247585;33;20112;-70
2021/08/14 06:57:15;;;;;;;43.22;24.75;;;;;;;;;;4247522;33;20146;-71
2021/08/14 06:59:42;;;;;;;53.50;26.90;;;;;;;;;;4260634;33;20195;-70
2021/08/14 07:02:08;;;;;;;42.05;22.60;;;;;;;;;;4260789;33;20511;-70
2021/08/14 07:04:36;;;;;;;51.80;25.45;;;;;;;;;;4260680;33;20235;-70
2021/08/14 07:07:02;;;;;;;41.60;23.23;;;;;;;;;;4260535;33;20108;-70
2021/08/14 07:09:28;;;;;;;38.80;23.38;;;;;;;;;;4260518;33;20547;-70
2021/08/14 07:11:54;;;;;;;43.13;23.87;;;;;;;;;;4260519;33;20219;-70
2021/08/14 07:14:20;;;;;;;40.80;23.58;;;;;;;;;;4260769;33;20259;-71
2021/08/14 07:16:46;;;;;;;47.62;24.02;;;;;;;;;;4244753;33;20216;-71
2021/08/14 07:19:12;;;;;;;37.63;21.17;;;;;;;;;;4244971;33;20093;-70
2021/08/14 07:21:38;;;;;;;46.83;23.85;;;;;;;;;;4246448;33;20193;-70
2021/08/14 07:24:04;;;;;;;41.22;22.00;;;;;;;;;;4246576;33;20222;-71
2021/08/14 07:26:30;;;;;;;45.05;25.10;;;;;;;;;;4246603;33;20604;-70
2021/08/14 07:28:56;;;;;;;37.30;22.10;;;;;;;;;;4244886;33;20185;-70
2021/08/14 07:31:22;;;;;;;44.67;23.10;;;;;;;;;;4246311;33;20187;-71
2021/08/14 07:33:49;;;;;;;44.42;23.85;;;;;;;;;;4245076;33;20131;-71
2021/08/14 07:36:15;;;;;;;41.63;22.40;;;;;;;;;;4246357;33;20097;-70
2021/08/14 07:38:41;;;;;;;41.15;21.62;;;;;;;;;;4245809;33;20150;-70
2021/08/14 07:41:07;;;;;;;42.92;22.30;;;;;;;;;;4246314;33;20161;-70
2021/08/14 07:43:33;;;;;;;44.95;22.75;;;;;;;;;;4246412;33;20211;-71
2021/08/14 07:45:59;;;;;;;39.88;21.35;;;;;;;;;;4244653;33;20191;-70
2021/08/14 07:48:25;;;;;;;42.50;22.73;;;;;;;;;;4244755;33;20126;-70
2021/08/14 07:50:51;;;;;;;41.20;21.92;;;;;;;;;;4246009;33;20120;-70
2021/08/14 07:53:17;;;;;;;40.88;21.70;;;;;;;;;;4246016;33;20113;-71
2021/08/14 07:55:43;;;;;;;39.15;20.67;;;;;;;;;;4246141;33;20136;-71
2021/08/14 07:58:11;;;;;;;45.80;22.40;;;;;;;;;;4244696;33;20113;-70
2021/08/14 08:00:37;;;;;;;43.63;21.33;;;;;;;;;;4245982;33;20119;-70
2021/08/14 08:03:03;;;;;;;50.97;23.42;;;;;;;;;;4246033;33;20211;-70
2021/08/14 08:05:29;;;;;;;46.72;21.65;;;;;;;;;;4244548;33;20317;-70
2021/08/14 08:07:55;;;;;;;49.22;22.42;;;;;;;;;;4245918;33;20132;-70
2021/08/14 08:10:21;;;;;;;57.30;23.50;;;;;;;;;;4245681;33;20551;-70
2021/08/14 08:12:47;;;;;;;46.53;22.15;;;;;;;;;;4244406;33;20505;-70
2021/08/14 08:15:14;;;;;;;46.28;22.10;;;;;;;;;;4244403;33;20223;-70
2021/08/14 08:17:40;;;;;;;43.30;23.77;;;;;;;;;;4223526;33;20186;-70
2021/08/14 08:20:07;;;;;;;49.00;23.10;;;;;;;;;;4232464;33;20143;-70
2021/08/14 08:22:33;;;;;;;50.03;23.23;;;;;;;;;;4245620;33;20084;-70
2021/08/14 08:24:59;;;;;;;55.83;23.58;;;;;;;;;;4232645;33;20105;-70
2021/08/14 08:27:26;;;;;;;48.83;23.50;;;;;;;;;;4245669;33;20219;-70
2021/08/14 08:29:52;;;;;;;51.70;22.08;;;;;;;;;;4245967;33;20124;-71
2021/08/14 08:32:18;;;;;;;53.20;25.45;;;;;;;;;;4232679;33;20097;-71
2021/08/14 08:34:44;;;;;;;46.30;24.55;;;;;;;;;;4221199;33;20101;-71
2021/08/14 08:37:11;;;;;;;44.58;21.87;;;;;;;;;;4232792;33;20571;-71
2021/08/14 08:39:37;;;;;;;54.78;23.02;;;;;;;;;;4245757;33;20117;-71
2021/08/14 08:42:05;;;;;;;56.75;22.65;;;;;;;;;;4245583;33;20137;-71
2021/08/14 08:44:32;;;;;;;46.65;22.67;;;;;;;;;;4232930;33;20089;-72
2021/08/14 08:46:59;;;;;;;54.70;22.55;;;;;;;;;;4232510;33;20178;-71
2021/08/14 08:49:26;;;;;;;47.50;24.25;;;;;;;;;;4220930;33;20551;-71
2021/08/14 08:51:53;;;;;;;49.08;22.00;;;;;;;;;;4223186;33;20216;-71
2021/08/14 08:54:19;;;;;;;44.30;21.80;;;;;;;;;;4248028;33;20205;-72
2021/08/14 08:56:46;;;;;;;50.88;23.55;;;;;;;;;;4234630;33;20123;-72
2021/08/14 08:59:12;;;;;;;49.90;23.27;;;;;;;;;;4234524;33;20116;-71
2021/08/14 09:01:39;;;;;;;50.70;22.08;;;;;;;;;;4247728;33;20143;-71
2021/08/14 09:04:28;;;;;;;47.85;23.15;;;;;;;;;;4247893;33;20544;-71
2021/08/14 09:06:55;;;;;;;45.70;23.87;;;;;;;;;;4234817;33;20112;-71
2021/08/14 09:09:28;;;;;;;44.67;21.90;;;;;;;;;;4234432;33;20209;-71
2021/08/14 09:12:06;;;;;;;51.50;20.70;;;;;;;;;;4247739;33;20196;-70
2021/08/14 09:14:46;;;;;;;47.55;21.37;;;;;;;;;;4247714;33;20132;-70
2021/08/14 09:17:12;;;;;;;42.78;17.05;;;;;;;;;;4247527;33;20116;-70
2021/08/14 09:19:38;;;;;;;48.72;18.62;;;;;;;;;;4256887;33;20123;-70
2021/08/14 09:22:15;;;;;;;39.00;18.17;;;;;;;;;;4236569;33;20535;-70
2021/08/14 09:24:41;;;;;;;43.20;20.30;;;;;;;;;;4261527;33;20135;-70
2021/08/14 09:27:07;;;;;;;44.28;20.05;;;;;;;;;;4261580;33;20183;-69
2021/08/14 09:29:36;;;;;;;50.60;17.08;;;;;;;;;;4261567;33;20118;-71
2021/08/14 09:32:08;;;;;;;38.03;17.77;;;;;;;;;;4248243;33;20113;-71
2021/08/14 09:34:38;;;;;;;35.22;17.02;;;;;;;;;;4261570;33;20124;-70
2021/08/14 09:37:09;;;;;;;33.42;18.20;;;;;;;;;;4248537;33;20495;-68
2021/08/14 09:39:51;;;;;;;44.42;18.12;;;;;;;;;;4261248;33;20154;-68
2021/08/14 09:42:17;;;;;;;37.58;17.58;;;;;;;;;;4261326;33;20107;-68
2021/08/14 09:44:44;;;;;;;41.40;16.45;;;;;;;;;;4248349;33;20219;-68
2021/08/14 09:47:30;;;;;;;42.85;17.27;;;;;;;;;;4261441;33;20123;-68
2021/08/14 09:49:57;;;;;;;39.67;17.23;;;;;;;;;;4261339;33;20124;-68
2021/08/14 09:52:24;;;;;;;33.58;15.05;;;;;;;;;;4236241;33;20096;-67
2021/08/14 09:54:51;;;;;;;46.15;20.05;;;;;;;;;;4261296;33;20135;-68
2021/08/14 09:57:17;;;;;;;40.38;16.27;;;;;;;;;;4261078;33;20093;-68
2021/08/14 09:59:45;;;;;;;44.35;18.15;;;;;;;;;;4247978;33;20096;-68
2021/08/14 10:02:14;;;;;;;33.15;13.13;;;;;;;;;;4260643;33;20125;-68
2021/08/14 10:04:40;;;;;;;37.22;16.08;;;;;;;;;;4248344;33;20200;-68
2021/08/14 10:07:07;;;;;;;43.83;16.30;;;;;;;;;;4236230;33;20139;-68
2021/08/14 10:09:34;;;;;;;38.53;17.60;;;;;;;;;;4236502;33;20116;-68
2021/08/14 10:12:00;;;;;;;40.08;16.05;;;;;;;;;;4236464;33;20104;-68
2021/08/14 10:14:26;;;;;;;43.22;16.08;;;;;;;;;;4247952;33;20136;-69
2021/08/14 10:16:53;;;;;;;39.80;16.83;;;;;;;;;;4245303;33;20203;-68
2021/08/14 10:19:20;;;;;;;32.00;15.48;;;;;;;;;;4245401;33;20132;-68
2021/08/14 10:21:49;;;;;;;38.28;17.10;;;;;;;;;;4233947;33;20187;-69
2021/08/14 10:24:15;;;;;;;39.50;18.62;;;;;;;;;;4234099;33;20112;-68
2021/08/14 10:26:42;;;;;;;40.45;18.52;;;;;;;;;;4233818;33;20145;-71
2021/08/14 10:29:08;;;;;;;38.20;16.77;;;;;;;;;;4233745;33;20376;-71
2021/08/14 10:31:37;;;;;;;41.00;16.33;;;;;;;;;;4247032;33;20616;-71
2021/08/14 10:34:12;;;;;;;33.17;16.62;;;;;;;;;;4246924;33;20137;-71
2021/08/14 10:36:39;;;;;;;38.92;16.10;;;;;;;;;;4246724;33;20523;-71
2021/08/14 10:39:21;;;;;;;33.63;13.43;;;;;;;;;;4247111;33;20521;-71
2021/08/14 10:41:50;;;;;;;35.78;14.25;;;;;;;;;;4246715;33;20120;-71
2021/08/14 10:44:36;;;;;;;36.13;17.02;;;;;;;;;;4246709;33;20571;-71
2021/08/14 10:47:03;;;;;;;29.10;15.35;;;;;;;;;;4246704;33;20180;-72
2021/08/14 10:49:32;;;;;;;32.55;15.50;;;;;;;;;;4246925;33;20119;-69
2021/08/14 10:52:01;;;;;;;31.70;15.15;;;;;;;;;;4246949;33;20116;-71
2021/08/14 10:54:27;;;;;;;33.03;15.20;;;;;;;;;;4246750;33;20227;-71
2021/08/14 10:56:54;;;;;;;37.75;17.83;;;;;;;;;;4246524;33;20128;-71
2021/08/14 10:59:38;;;;;;;34.13;16.33;;;;;;;;;;4246616;33;20191;-71
2021/08/14 11:02:10;;;;;;;39.22;15.93;;;;;;;;;;4246418;33;20468;-71
2021/08/14 11:04:37;;;;;;;29.95;10.45;;;;;;;;;;4246543;33;20188;-71
2021/08/14 11:07:18;;;;;;;39.10;17.90;;;;;;;;;;4245070;33;20101;-71
2021/08/14 11:09:48;;;;;;;36.55;13.90;;;;;;;;;;4246338;33;20156;-71
2021/08/14 11:12:33;;;;;;;21.75;8.77;;;;;;;;;;4244638;33;20164;-71
2021/08/14 11:15:19;;;;;;;29.95;15.10;;;;;;;;;;4245298;33;20118;-71
2021/08/14 11:17:49;;;;;;;45.25;16.00;;;;;;;;;;4244976;33;20536;-71
2021/08/14 11:20:24;;;;;;;27.35;11.12;;;;;;;;;;4230800;33;20188;-71
2021/08/14 11:22:53;;;;;;;35.72;15.40;;;;;;;;;;4232186;33;20121;-71
2021/08/14 11:25:30;;;;;;;39.50;17.08;;;;;;;;;;4230772;33;20128;-71
2021/08/14 11:28:00;;;;;;;37.13;15.80;;;;;;;;;;4230863;33;20584;-71
2021/08/14 11:30:44;;;;;;;37.72;15.48;;;;;;;;;;4230862;33;20109;-71
2021/08/14 11:33:10;;;;;;;36.22;15.85;;;;;;;;;;4231047;33;20124;-71
2021/08/14 11:35:38;;;;;;;36.08;13.77;;;;;;;;;;4232399;33;20117;-71
2021/08/14 11:38:06;;;;;;;42.35;17.87;;;;;;;;;;4230720;33;20117;-71
2021/08/14 11:40:42;;;;;;;44.20;17.52;;;;;;;;;;4230620;33;20109;-71
2021/08/14 11:43:13;;;;;;;43.42;16.35;;;;;;;;;;4232070;33;20136;-71
2021/08/14 11:45:40;;;;;;;26.87;11.07;;;;;;;;;;4232083;33;20109;-71
2021/08/14 11:48:10;;;;;;;25.50;9.80;;;;;;;;;;4218953;33;20493;-71
2021/08/14 11:50:40;;;;;;;30.12;13.57;;;;;;;;;;4231964;33;20109;-71
2021/08/14 11:53:10;;;;;;;28.70;12.18;;;;;;;;;;4230963;33;20434;-71
2021/08/14 11:55:37;;;;;;;38.00;15.60;;;;;;;;;;4232132;33;20116;-71
2021/08/14 11:58:03;;;;;;;39.72;16.42;;;;;;;;;;4232056;33;20104;-71
2021/08/14 12:00:37;;;;;;;28.00;15.27;;;;;;;;;;4232088;33;20127;-71
2021/08/14 12:03:07;;;;;;;34.05;17.50;;;;;;;;;;4232057;33;20176;-71
2021/08/14 12:05:37;;;;;;;37.03;15.98;;;;;;;;;;4230603;33;20103;-71
2021/08/14 12:08:04;;;;;;;39.28;16.40;;;;;;;;;;4231942;33;20101;-72
2021/08/14 12:10:30;;;;;;;25.62;11.25;;;;;;;;;;4230286;33;20224;-72
2021/08/14 12:12:59;;;;;;;31.75;14.68;;;;;;;;;;4218942;33;20137;-71
2021/08/14 12:15:38;;;;;;;24.23;10.70;;;;;;;;;;4232714;33;20210;-71
2021/08/14 12:18:05;;;;;;;31.20;14.77;;;;;;;;;;4246428;33;20136;-71
2021/08/14 12:20:32;;;;;;;10.73;6.18;;;;;;;;;;4246687;33;20121;-71
2021/08/14 12:23:21;;;;;;;32.53;13.13;;;;;;;;;;4246720;33;20201;-70
2021/08/14 12:25:52;;;;;;;23.17;8.70;;;;;;;;;;4264239;33;20219;-71
2021/08/14 12:28:18;;;;;;;21.85;7.10;;;;;;;;;;4264558;33;20141;-71
2021/08/14 12:30:45;;;;;;;25.88;11.05;;;;;;;;;;4251371;33;20128;-71
2021/08/14 12:33:24;;;;;;;27.13;12.77;;;;;;;;;;4264731;33;20108;-71
2021/08/14 12:36:05;;;;;;;18.58;8.80;;;;;;;;;;4264302;33;20210;-70
2021/08/14 12:38:34;;;;;;;13.80;6.93;;;;;;;;;;4264726;33;20108;-71
2021/08/14 12:41:16;;;;;;;18.70;9.32;;;;;;;;;;4264576;33;20112;-71
2021/08/14 12:43:45;;;;;;;20.45;8.27;;;;;;;;;;4264584;33;20108;-71
2021/08/14 12:46:24;;;;;;;9.93;5.30;;;;;;;;;;4251248;33;20100;-71
2021/08/14 12:49:17;;;;;;;18.05;8.50;;;;;;;;;;4264410;33;20593;-70
2021/08/14 12:51:52;;;;;;;14.10;6.30;;;;;;;;;;4251288;33;20124;-70
2021/08/14 12:54:18;;;;;;;14.65;5.97;;;;;;;;;;4264594;33;20096;-70
2021/08/14 12:56:44;;;;;;;9.23;5.00;;;;;;;;;;4239633;33;20096;-70
2021/08/14 12:59:10;;;;;;;21.98;9.23;;;;;;;;;;4239731;33;20564;-70
2021/08/14 13:01:36;;;;;;;14.68;7.20;;;;;;;;;;4251223;33;20123;-70
2021/08/14 13:04:03;;;;;;;13.73;6.90;;;;;;;;;;4264341;33;20199;-70
2021/08/14 13:06:30;;;;;;;11.45;6.85;;;;;;;;;;4264102;33;20211;-70
2021/08/14 13:08:56;;;;;;;7.78;5.10;;;;;;;;;;4264003;33;20460;-70
2021/08/14 13:11:22;;;;;;;8.32;5.30;;;;;;;;;;4264009;33;20116;-70
2021/08/14 13:13:49;;;;;;;12.52;4.37;;;;;;;;;;4251047;33;20108;-70
2021/08/14 13:16:15;;;;;;;9.85;4.00;;;;;;;;;;4251027;33;20132;-70
2021/08/14 13:18:41;;;;;;;7.18;4.22;;;;;;;;;;4264138;33;20526;-70
2021/08/14 13:21:09;;;;;;;4.15;3.17;;;;;;;;;;4263796;33;20115;-70
2021/08/14 13:23:35;;;;;;;7.03;3.20;;;;;;;;;;4251019;33;20127;-70
2021/08/14 13:26:01;;;;;;;5.82;3.15;;;;;;;;;;4263890;33;20116;-71
2021/08/14 13:28:27;;;;;;;3.45;2.97;;;;;;;;;;4250659;33;20222;-70
2021/08/14 13:30:55;;;;;;;9.60;3.22;;;;;;;;;;4263790;33;20217;-70
2021/08/14 13:33:21;;;;;;;6.82;2.95;;;;;;;;;;4263897;33;20119;-70
2021/08/14 13:35:51;;;;;;;4.05;2.55;;;;;;;;;;4249606;33;20525;-71
2021/08/14 13:38:17;;;;;;;3.95;2.80;;;;;;;;;;4261441;33;20092;-71
2021/08/14 13:40:44;;;;;;;5.03;3.17;;;;;;;;;;4261268;33;20203;-71
2021/08/14 13:43:10;;;;;;;9.20;3.05;;;;;;;;;;4261304;33;20492;-71
2021/08/14 13:45:36;;;;;;;3.10;2.37;;;;;;;;;;4248170;33;20487;-71
2021/08/14 13:48:02;;;;;;;4.20;2.28;;;;;;;;;;4248418;33;20219;-71
2021/08/14 13:50:28;;;;;;;3.20;2.47;;;;;;;;;;4236463;33;20124;-71
2021/08/14 13:52:54;;;;;;;4.15;2.72;;;;;;;;;;4261397;33;20422;-71
2021/08/14 13:55:20;;;;;;;2.95;2.58;;;;;;;;;;4261223;33;20100;-70
2021/08/14 13:57:46;;;;;;;2.65;2.37;;;;;;;;;;4248190;33;20112;-70
2021/08/14 14:00:13;;;;;;;2.17;1.80;;;;;;;;;;4261074;33;20100;-71
2021/08/14 14:02:39;;;;;;;3.87;2.53;;;;;;;;;;4261068;33;20117;-70
2021/08/14 14:05:05;;;;;;;3.65;2.58;;;;;;;;;;4261213;33;20501;-70
2021/08/14 14:07:35;;;;;;;3.12;1.98;;;;;;;;;;4247767;33;20128;-70
2021/08/14 14:10:02;;;;;;;2.80;2.42;;;;;;;;;;4247639;33;20124;-70
2021/08/14 14:12:28;;;;;;;2.47;2.08;;;;;;;;;;4261061;33;20198;-70
2021/08/14 14:14:54;;;;;;;1.77;1.67;;;;;;;;;;4247980;33;20583;-70
2021/08/14 14:17:21;;;;;;;2.30;1.70;;;;;;;;;;4261142;33;20108;-70
2021/08/14 14:19:48;;;;;;;3.95;2.12;;;;;;;;;;4271486;33;20127;-67
2021/08/14 14:22:14;;;;;;;1.70;1.60;;;;;;;;;;4262176;33;20162;-67
2021/08/14 14:24:40;;;;;;;3.70;1.73;;;;;;;;;;4262002;33;20115;-68
2021/08/14 14:27:06;;;;;;;5.80;2.00;;;;;;;;;;4262117;33;20178;-68
2021/08/14 14:29:33;;;;;;;1.58;1.48;;;;;;;;;;4261992;33;20112;-68
2021/08/14 14:31:59;;;;;;;1.65;1.55;;;;;;;;;;4275245;33;20134;-68
2021/08/14 14:34:25;;;;;;;5.68;1.90;;;;;;;;;;4261926;33;20614;-68
2021/08/14 14:36:51;;;;;;;2.90;1.83;;;;;;;;;;4261799;33;20112;-68
2021/08/14 14:39:17;;;;;;;4.78;2.40;;;;;;;;;;4275095;33;20116;-68